<?xml version="1.0" encoding="UTF-8" standalone="no" ?>
<gpx version="1.1" creator="Visorando" xmlns:xsi="http://www.w3.org/2001/XMLSchema-instance" xmlns="http://www.topografix.com/GPX/1/1" xsi:schemaLocation="http://www.topografix.com/GPX/1/1 http://www.topografix.com/GPX/1/1/gpx.xsd">
 <metadata>
  <name>Randonnée du 31/08/2020 à 15:24</name>
  <link href="https://www.visorando.com/randonnee-/3948022">
   <text>https://www.visorando.com/randonnee-/3948022</text>
  </link>
 </metadata>
 <trk>
  <name>Randonnée du 31/08/2020 à 15:24</name>
  <trkseg>
   <trkpt lat="47.904681" lon="6.647172">
    <ele>605</ele>
    <time>2020-08-31T15:25:04+02:00</time>
   </trkpt>
   <trkpt lat="47.904538" lon="6.646743">
    <ele>610</ele>
    <time>2020-08-31T15:25:09+02:00</time>
   </trkpt>
   <trkpt lat="47.90425" lon="6.646743">
    <ele>613</ele>
    <time>2020-08-31T15:25:14+02:00</time>
   </trkpt>
   <trkpt lat="47.904106" lon="6.647258">
    <ele>612</ele>
    <time>2020-08-31T15:25:19+02:00</time>
   </trkpt>
   <trkpt lat="47.903818" lon="6.647473">
    <ele>620</ele>
    <time>2020-08-31T15:25:24+02:00</time>
   </trkpt>
   <trkpt lat="47.903502" lon="6.647516">
    <ele>626</ele>
    <time>2020-08-31T15:25:29+02:00</time>
   </trkpt>
   <trkpt lat="47.903272" lon="6.647902">
    <ele>627</ele>
    <time>2020-08-31T15:25:34+02:00</time>
   </trkpt>
   <trkpt lat="47.903185" lon="6.648331">
    <ele>626</ele>
    <time>2020-08-31T15:25:39+02:00</time>
   </trkpt>
   <trkpt lat="47.902955" lon="6.648803">
    <ele>626</ele>
    <time>2020-08-31T15:25:44+02:00</time>
   </trkpt>
   <trkpt lat="47.90284" lon="6.649533">
    <ele>626</ele>
    <time>2020-08-31T15:25:49+02:00</time>
   </trkpt>
   <trkpt lat="47.902783" lon="6.650048">
    <ele>625</ele>
    <time>2020-08-31T15:25:54+02:00</time>
   </trkpt>
   <trkpt lat="47.902783" lon="6.650477">
    <ele>627</ele>
    <time>2020-08-31T15:25:59+02:00</time>
   </trkpt>
   <trkpt lat="47.902898" lon="6.651292">
    <ele>628</ele>
    <time>2020-08-31T15:26:04+02:00</time>
   </trkpt>
   <trkpt lat="47.903157" lon="6.651721">
    <ele>620</ele>
    <time>2020-08-31T15:26:09+02:00</time>
   </trkpt>
   <trkpt lat="47.903185" lon="6.652236">
    <ele>617</ele>
    <time>2020-08-31T15:26:14+02:00</time>
   </trkpt>
   <trkpt lat="47.902955" lon="6.652494">
    <ele>623</ele>
    <time>2020-08-31T15:26:19+02:00</time>
   </trkpt>
   <trkpt lat="47.902668" lon="6.653567">
    <ele>625</ele>
    <time>2020-08-31T15:26:24+02:00</time>
   </trkpt>
   <trkpt lat="47.902668" lon="6.65421">
    <ele>623</ele>
    <time>2020-08-31T15:26:29+02:00</time>
   </trkpt>
   <trkpt lat="47.902553" lon="6.655026">
    <ele>626</ele>
    <time>2020-08-31T15:26:34+02:00</time>
   </trkpt>
   <trkpt lat="47.90238" lon="6.655884">
    <ele>628</ele>
    <time>2020-08-31T15:26:39+02:00</time>
   </trkpt>
   <trkpt lat="47.902265" lon="6.656399">
    <ele>630</ele>
    <time>2020-08-31T15:26:44+02:00</time>
   </trkpt>
   <trkpt lat="47.902207" lon="6.657043">
    <ele>630</ele>
    <time>2020-08-31T15:26:49+02:00</time>
   </trkpt>
   <trkpt lat="47.901804" lon="6.657601">
    <ele>637</ele>
    <time>2020-08-31T15:26:54+02:00</time>
   </trkpt>
   <trkpt lat="47.901229" lon="6.658244">
    <ele>645</ele>
    <time>2020-08-31T15:26:59+02:00</time>
   </trkpt>
   <trkpt lat="47.900826" lon="6.658888">
    <ele>646</ele>
    <time>2020-08-31T15:27:04+02:00</time>
   </trkpt>
   <trkpt lat="47.900769" lon="6.659875">
    <ele>646</ele>
    <time>2020-08-31T15:27:09+02:00</time>
   </trkpt>
   <trkpt lat="47.900395" lon="6.660347">
    <ele>657</ele>
    <time>2020-08-31T15:27:14+02:00</time>
   </trkpt>
   <trkpt lat="47.900078" lon="6.660819">
    <ele>658</ele>
    <time>2020-08-31T15:27:19+02:00</time>
   </trkpt>
   <trkpt lat="47.899762" lon="6.66112">
    <ele>660</ele>
    <time>2020-08-31T15:27:24+02:00</time>
   </trkpt>
   <trkpt lat="47.899416" lon="6.661334">
    <ele>663</ele>
    <time>2020-08-31T15:27:29+02:00</time>
   </trkpt>
   <trkpt lat="47.898956" lon="6.661806">
    <ele>662</ele>
    <time>2020-08-31T15:27:34+02:00</time>
   </trkpt>
   <trkpt lat="47.898697" lon="6.662236">
    <ele>659</ele>
    <time>2020-08-31T15:27:39+02:00</time>
   </trkpt>
   <trkpt lat="47.898611" lon="6.662879">
    <ele>653</ele>
    <time>2020-08-31T15:27:44+02:00</time>
   </trkpt>
   <trkpt lat="47.898582" lon="6.663566">
    <ele>652</ele>
    <time>2020-08-31T15:27:49+02:00</time>
   </trkpt>
   <trkpt lat="47.898467" lon="6.664939">
    <ele>653</ele>
    <time>2020-08-31T15:27:54+02:00</time>
   </trkpt>
   <trkpt lat="47.898409" lon="6.665583">
    <ele>651</ele>
    <time>2020-08-31T15:27:59+02:00</time>
   </trkpt>
   <trkpt lat="47.898093" lon="6.666055">
    <ele>657</ele>
    <time>2020-08-31T15:28:04+02:00</time>
   </trkpt>
   <trkpt lat="47.897776" lon="6.666227">
    <ele>660</ele>
    <time>2020-08-31T15:28:09+02:00</time>
   </trkpt>
   <trkpt lat="47.897172" lon="6.66627">
    <ele>661</ele>
    <time>2020-08-31T15:28:14+02:00</time>
   </trkpt>
   <trkpt lat="47.896827" lon="6.666313">
    <ele>661</ele>
    <time>2020-08-31T15:28:19+02:00</time>
   </trkpt>
   <trkpt lat="47.896165" lon="6.666613">
    <ele>658</ele>
    <time>2020-08-31T15:28:24+02:00</time>
   </trkpt>
   <trkpt lat="47.895791" lon="6.666828">
    <ele>655</ele>
    <time>2020-08-31T15:28:29+02:00</time>
   </trkpt>
   <trkpt lat="47.895446" lon="6.666999">
    <ele>652</ele>
    <time>2020-08-31T15:28:34+02:00</time>
   </trkpt>
   <trkpt lat="47.894439" lon="6.667428">
    <ele>655</ele>
    <time>2020-08-31T15:28:39+02:00</time>
   </trkpt>
   <trkpt lat="47.89418" lon="6.667686">
    <ele>656</ele>
    <time>2020-08-31T15:28:44+02:00</time>
   </trkpt>
   <trkpt lat="47.893806" lon="6.668415">
    <ele>659</ele>
    <time>2020-08-31T15:28:49+02:00</time>
   </trkpt>
   <trkpt lat="47.893691" lon="6.669059">
    <ele>655</ele>
    <time>2020-08-31T15:28:54+02:00</time>
   </trkpt>
   <trkpt lat="47.893575" lon="6.669274">
    <ele>657</ele>
    <time>2020-08-31T15:28:59+02:00</time>
   </trkpt>
   <trkpt lat="47.893345" lon="6.669875">
    <ele>659</ele>
    <time>2020-08-31T15:29:04+02:00</time>
   </trkpt>
   <trkpt lat="47.893115" lon="6.670132">
    <ele>661</ele>
    <time>2020-08-31T15:29:09+02:00</time>
   </trkpt>
   <trkpt lat="47.893115" lon="6.669488">
    <ele>665</ele>
    <time>2020-08-31T15:29:14+02:00</time>
   </trkpt>
   <trkpt lat="47.893345" lon="6.66893">
    <ele>668</ele>
    <time>2020-08-31T15:29:19+02:00</time>
   </trkpt>
   <trkpt lat="47.89346" lon="6.668244">
    <ele>672</ele>
    <time>2020-08-31T15:29:24+02:00</time>
   </trkpt>
   <trkpt lat="47.893547" lon="6.667772">
    <ele>676</ele>
    <time>2020-08-31T15:29:29+02:00</time>
   </trkpt>
   <trkpt lat="47.893691" lon="6.667042">
    <ele>681</ele>
    <time>2020-08-31T15:29:34+02:00</time>
   </trkpt>
   <trkpt lat="47.893863" lon="6.666527">
    <ele>683</ele>
    <time>2020-08-31T15:29:39+02:00</time>
   </trkpt>
   <trkpt lat="47.894151" lon="6.666184">
    <ele>687</ele>
    <time>2020-08-31T15:29:44+02:00</time>
   </trkpt>
   <trkpt lat="47.894698" lon="6.666055">
    <ele>689</ele>
    <time>2020-08-31T15:29:49+02:00</time>
   </trkpt>
   <trkpt lat="47.895129" lon="6.665755">
    <ele>685</ele>
    <time>2020-08-31T15:29:54+02:00</time>
   </trkpt>
   <trkpt lat="47.895359" lon="6.66451">
    <ele>696</ele>
    <time>2020-08-31T15:29:59+02:00</time>
   </trkpt>
   <trkpt lat="47.895906" lon="6.663995">
    <ele>692</ele>
    <time>2020-08-31T15:30:04+02:00</time>
   </trkpt>
   <trkpt lat="47.896223" lon="6.663781">
    <ele>693</ele>
    <time>2020-08-31T15:30:09+02:00</time>
   </trkpt>
   <trkpt lat="47.896654" lon="6.663351">
    <ele>699</ele>
    <time>2020-08-31T15:30:14+02:00</time>
   </trkpt>
   <trkpt lat="47.897172" lon="6.663094">
    <ele>700</ele>
    <time>2020-08-31T15:30:19+02:00</time>
   </trkpt>
   <trkpt lat="47.897431" lon="6.662708">
    <ele>695</ele>
    <time>2020-08-31T15:30:24+02:00</time>
   </trkpt>
   <trkpt lat="47.897661" lon="6.662107">
    <ele>689</ele>
    <time>2020-08-31T15:30:29+02:00</time>
   </trkpt>
   <trkpt lat="47.89792" lon="6.661463">
    <ele>685</ele>
    <time>2020-08-31T15:30:34+02:00</time>
   </trkpt>
   <trkpt lat="47.89792" lon="6.660648">
    <ele>685</ele>
    <time>2020-08-31T15:30:39+02:00</time>
   </trkpt>
   <trkpt lat="47.898179" lon="6.659918">
    <ele>682</ele>
    <time>2020-08-31T15:30:44+02:00</time>
   </trkpt>
   <trkpt lat="47.898553" lon="6.659446">
    <ele>681</ele>
    <time>2020-08-31T15:30:49+02:00</time>
   </trkpt>
   <trkpt lat="47.899042" lon="6.659103">
    <ele>682</ele>
    <time>2020-08-31T15:30:54+02:00</time>
   </trkpt>
   <trkpt lat="47.899359" lon="6.658416">
    <ele>684</ele>
    <time>2020-08-31T15:30:59+02:00</time>
   </trkpt>
   <trkpt lat="47.899762" lon="6.657558">
    <ele>684</ele>
    <time>2020-08-31T15:31:04+02:00</time>
   </trkpt>
   <trkpt lat="47.900107" lon="6.656571">
    <ele>679</ele>
    <time>2020-08-31T15:31:09+02:00</time>
   </trkpt>
   <trkpt lat="47.90051" lon="6.656099">
    <ele>669</ele>
    <time>2020-08-31T15:31:14+02:00</time>
   </trkpt>
   <trkpt lat="47.900711" lon="6.655584">
    <ele>670</ele>
    <time>2020-08-31T15:31:19+02:00</time>
   </trkpt>
   <trkpt lat="47.900913" lon="6.65524">
    <ele>672</ele>
    <time>2020-08-31T15:31:24+02:00</time>
   </trkpt>
   <trkpt lat="47.901114" lon="6.654725">
    <ele>673</ele>
    <time>2020-08-31T15:31:29+02:00</time>
   </trkpt>
   <trkpt lat="47.901258" lon="6.653738">
    <ele>670</ele>
    <time>2020-08-31T15:31:34+02:00</time>
   </trkpt>
   <trkpt lat="47.901315" lon="6.652751">
    <ele>670</ele>
    <time>2020-08-31T15:31:39+02:00</time>
   </trkpt>
   <trkpt lat="47.901546" lon="6.651764">
    <ele>664</ele>
    <time>2020-08-31T15:31:44+02:00</time>
   </trkpt>
   <trkpt lat="47.901603" lon="6.651035">
    <ele>661</ele>
    <time>2020-08-31T15:31:49+02:00</time>
   </trkpt>
   <trkpt lat="47.901747" lon="6.650048">
    <ele>659</ele>
    <time>2020-08-31T15:31:54+02:00</time>
   </trkpt>
   <trkpt lat="47.901891" lon="6.649661">
    <ele>655</ele>
    <time>2020-08-31T15:31:59+02:00</time>
   </trkpt>
   <trkpt lat="47.902236" lon="6.648717">
    <ele>644</ele>
    <time>2020-08-31T15:32:04+02:00</time>
   </trkpt>
   <trkpt lat="47.902668" lon="6.648116">
    <ele>635</ele>
    <time>2020-08-31T15:32:09+02:00</time>
   </trkpt>
   <trkpt lat="47.903042" lon="6.647473">
    <ele>630</ele>
    <time>2020-08-31T15:32:14+02:00</time>
   </trkpt>
   <trkpt lat="47.903559" lon="6.647344">
    <ele>627</ele>
    <time>2020-08-31T15:32:19+02:00</time>
   </trkpt>
   <trkpt lat="47.903818" lon="6.647473">
    <ele>620</ele>
    <time>2020-08-31T15:32:24+02:00</time>
   </trkpt>
   <trkpt lat="47.904164" lon="6.646915">
    <ele>612</ele>
    <time>2020-08-31T15:32:29+02:00</time>
   </trkpt>
   <trkpt lat="47.90448" lon="6.646571">
    <ele>613</ele>
    <time>2020-08-31T15:32:34+02:00</time>
   </trkpt>
   <trkpt lat="47.904538" lon="6.646915">
    <ele>608</ele>
    <time>2020-08-31T15:32:39+02:00</time>
   </trkpt>
   <trkpt lat="47.904653" lon="6.647301">
    <ele>604</ele>
    <time>2020-08-31T15:32:44+02:00</time>
   </trkpt>
   <trkpt lat="47.904653" lon="6.647344">
    <ele>604</ele>
    <time>2020-08-31T15:32:49+02:00</time>
   </trkpt>
   <trkpt lat="47.904768" lon="6.647344">
    <ele>602</ele>
    <time>2020-08-31T15:32:54+02:00</time>
   </trkpt>
  </trkseg>
 </trk></gpx>